Latest Weather Observations for Giles*

IDW60801

Issued at 5:34 pm WST Sunday 24 January 2021 (issued every 10 minutes, with the page automatically refreshed every 10 minutes)

About weather observations | Map of weather stations | Latest weather observations for WA | Other Formats
Station Details ID: 013017 Name: GILES METEOROLOGICAL OFFICE Lat: -25.03 Lon: 128.30 Height: 598.0 m
Data from the previous 72 hours. | See also: Recent months at Giles*

* Giles observations are collected in the South Australia time zone, which includes daylight saving in the summer period. Therefore, Rain since 9am value is with respect to South Australia local time.

Date/Time
WST
Temp
°C
App
Temp
°C
Dew
Point
°C
Rel
Hum
%
Delta-T
°C
Wind Press
QNH
hPa
Press
MSL
hPa
Rain since
9am
mm
Dir  Spd
km/h
Gust
km/h
Spd
kts
Gust
kts
24/05:30pm 28.3 28.1 19.4 58 5.9 W 19 26 10 14 1003.7 998.7 1.4
24/05:00pm 28.3 27.6 19.4 58 5.9 WNW 22 35 12 19 1003.7 998.7 1.4
24/04:30pm 28.3 26.7 19.3 58 6.0 W 26 35 14 19 1003.7 998.7 1.4
24/04:00pm 28.4 27.5 19.9 60 5.7 WNW 24 39 13 21 1003.5 998.5 1.4
24/03:30pm 27.8 26.4 19.7 61 5.4 W 26 35 14 19 1003.5 998.5 1.4
24/03:00pm 27.5 26.6 19.9 63 5.1 WNW 24 32 13 17 1003.6 998.6 1.4
24/02:30pm 26.9 26.8 20.0 66 4.6 NW 20 32 11 17 1003.9 998.9 1.4
24/02:00pm 27.7 27.8 20.3 64 5.0 WNW 20 30 11 16 1004.1 999.1 1.4
24/01:30pm 25.7 25.5 20.5 73 3.5 WNW 22 35 12 19 1004.5 999.5 1.4
24/01:00pm 25.2 24.6 20.6 75 3.1 NW 24 32 13 17 1004.9 999.9 1.4
24/12:43pm 24.2 25.1 21.9 87 1.6 NW 20 30 11 16 1005.1 1000.1 1.4
24/12:38pm 23.8 25.0 22.2 91 1.1 NW 19 28 10 15 1005.2 1000.2 1.4
24/12:30pm 23.5 24.7 22.5 94 0.7 NW 20 28 11 15 1005.3 1000.3 1.4
24/12:22pm 23.0 23.0 21.7 92 0.9 NW 24 32 13 17 1005.4 1000.4 1.0
24/12:21pm 23.1 23.0 21.5 91 1.1 NW 24 32 13 17 1005.4 1000.4 1.0
24/12:20pm 23.3 23.5 22.0 92 0.9 NW 24 32 13 17 1005.4 1000.4 1.0
24/12:18pm 23.3 23.3 21.7 91 1.1 NNW 24 30 13 16 1005.4 1000.4 1.0
24/12:02pm 23.0 22.8 22.1 95 0.6 NNW 26 35 14 19 1005.6 1000.6 1.0
24/12:00pm 22.9 22.6 21.9 94 0.7 NNW 26 35 14 19 1005.7 1000.7 1.0
24/11:46am 22.9 22.9 21.7 93 0.8 NW 24 32 13 17 1005.7 1000.7 1.0
24/11:30am 23.5 22.5 21.3 87 1.5 NW 28 46 15 25 1005.6 1000.6 1.0
24/11:24am 23.8 22.9 21.4 86 1.6 NW 28 46 15 25 1005.5 1000.5 1.0
24/11:00am 25.1 22.8 20.2 74 3.3 NNW 32 43 17 23 1005.6 1000.6 1.0
24/10:30am 25.4 22.6 20.3 73 3.4 NNW 35 46 19 25 1005.8 1000.8 1.0
24/10:00am 25.5 23.0 20.1 72 3.6 NW 33 43 18 23 1005.8 1000.8 0.8
24/09:30am 25.0 21.1 19.6 72 3.6 NNW 39 52 21 28 1005.8 1000.8 0.8
24/09:07am 23.7 21.4 20.1 80 2.4 NW 32 50 17 27 1005.8 1000.8 0.8
24/09:00am 23.9 22.2 20.5 81 2.3 NW 30 43 16 23 1005.9 1000.9 0.8
24/08:49am 23.5 22.5 21.3 87 1.5 NNW 28 39 15 21 1005.9 1000.9 0.8
24/08:38am 23.0 22.1 21.5 91 1.0 NNW 28 39 15 21 1005.9 1000.9 0.8
24/08:30am 22.8 22.1 21.8 94 0.7 NNW 28 39 15 21 1005.8 1000.8 0.8
24/08:00am 22.4 22.2 22.0 98 0.3 NNW 26 35 14 19 1005.4 1000.4 0.4
24/07:37am 23.2 21.8 21.9 92 0.9 N 32 44 17 24 1005.2 1000.2 0.0
24/07:30am 23.9 22.3 21.5 86 1.6 N 32 44 17 24 1005.1 1000.1 0.0
24/07:22am 24.6 22.4 21.5 83 2.1 NNW 35 54 19 29 1005.2 1000.2 0.0
24/07:00am 24.0 21.6 21.0 83 2.0 NNW 35 50 19 27 1004.9 999.9 0.0
24/06:43am 23.6 22.5 21.7 89 1.3 N 30 44 16 24 1004.7 999.8 0.0
24/06:30am 23.4 22.9 22.1 92 0.9 N 28 39 15 21 1004.9 999.9 19.8
24/06:29am 23.3 22.7 22.0 92 0.9 N 28 39 15 21 1004.9 999.9 19.8
24/06:00am 23.1 22.4 21.8 92 0.9 N 28 41 15 22 1004.6 999.7 19.8
24/05:30am 22.5 22.2 21.9 96 0.4 NNW 26 35 14 19 1004.5 999.5 19.8
24/05:00am 22.3 21.5 21.7 96 0.4 N 28 39 15 21 1004.2 999.2 19.8
24/04:44am 22.2 20.8 21.9 98 0.2 N 32 41 17 22 1004.0 999.0 19.8
24/04:38am 22.3 21.7 21.9 98 0.3 N 28 39 15 21 1004.0 999.0 19.8
24/04:35am 22.3 21.3 21.9 98 0.3 N 30 41 16 22 1004.0 999.0 19.8
24/04:30am 22.3 20.9 21.9 98 0.3 N 32 41 17 22 1003.8 998.8 19.8
24/04:17am 22.0 21.4 21.9 99 0.1 NNW 28 46 15 25 1003.7 998.7 19.8
24/04:12am 22.3 21.8 22.2 99 0.1 N 28 43 15 23 1003.7 998.7 19.4
24/04:07am 23.1 22.4 21.8 92 0.9 N 28 43 15 23 1003.5 998.5 18.0
24/04:00am 23.2 22.4 21.6 91 1.1 N 28 39 15 21 1003.5 998.5 18.0
24/03:50am 23.2 23.2 21.7 91 1.0 N 24 33 13 18 1003.4 998.4 18.0
24/03:30am 22.9 23.0 21.9 94 0.7 N 24 39 13 21 1003.4 998.4 18.0
24/03:24am 23.0 23.0 21.7 92 0.9 NNE 24 39 13 21 1003.4 998.4 18.0
24/03:12am 22.8 23.0 22.1 96 0.5 N 24 35 13 19 1003.6 998.6 18.0
24/03:11am 22.8 23.0 22.1 96 0.5 N 24 35 13 19 1003.6 998.6 18.0
24/03:00am 23.0 22.4 22.0 94 0.7 N 28 44 15 24 1003.7 998.7 18.0
24/02:30am 23.5 22.3 21.6 89 1.3 N 30 41 16 22 1003.8 998.8 17.8
24/02:00am 24.1 22.4 21.3 84 1.9 NNE 32 41 17 22 1003.8 998.8 17.8
24/01:30am 24.0 23.8 21.3 85 1.8 NNE 24 39 13 21 1004.1 999.1 17.8
24/01:00am 23.9 24.2 21.5 86 1.6 NNE 22 32 12 17 1004.3 999.3 17.8
24/12:59am 24.0 24.3 21.5 86 1.7 NNE 22 30 12 16 1004.3 999.3 17.8
24/12:37am 23.9 24.3 21.7 87 1.5 NNE 22 33 12 18 1004.5 999.5 17.8
24/12:30am 23.8 24.1 21.6 87 1.5 NNE 22 33 12 18 1004.6 999.7 17.8
24/12:00am 23.4 23.7 21.6 90 1.2 NNE 22 32 12 17 1005.0 1000.0 17.8
 
Date/Time
WST
Temp
°C
App
Temp
°C
Dew
Point
°C
Rel
Hum
%
Delta-T
°C
Wind Press
QNH
hPa
Press
MSL
hPa
Rain since
9am
mm
Dir  Spd
km/h
Gust
km/h
Spd
kts
Gust
kts
23/11:38pm 23.4 23.3 21.5 89 1.3 NNE 24 35 13 19 1005.2 1000.2 17.8
23/11:30pm 23.2 22.8 21.6 91 1.1 NNE 26 35 14 19 1005.2 1000.2 17.8
23/11:18pm 23.2 24.1 21.9 92 0.9 NNE 20 33 11 18 1005.3 1000.3 17.4
23/11:12pm 23.1 24.3 22.1 94 0.7 N 19 26 10 14 1005.4 1000.4 16.4
23/11:00pm 23.1 23.6 21.9 93 0.8 N 22 32 12 17 1005.6 1000.6 15.8
23/10:30pm 23.3 23.0 21.8 91 1.0 ENE 26 39 14 21 1005.8 1000.8 13.0
23/10:00pm 24.0 23.6 21.0 83 2.0 NE 24 35 13 19 1005.6 1000.6 11.6
23/09:30pm 23.3 23.9 21.1 87 1.5 ENE 19 28 10 15 1006.1 1001.1 11.6
23/09:00pm 23.1 23.8 21.2 89 1.3 E 19 26 10 14 1006.1 1001.1 11.6
23/08:30pm 23.1 23.6 21.2 89 1.3 E 20 28 11 15 1006.2 1001.3 11.6
23/08:00pm 23.2 24.0 21.7 91 1.0 ESE 20 28 11 15 1006.2 1001.3 11.6
23/07:30pm 23.2 26.2 21.9 92 0.9 ESE 9 17 5 9 1006.7 1001.7 11.6
23/07:00pm 23.3 25.4 21.7 91 1.1 ESE 13 20 7 11 1006.8 1001.8 11.6
23/06:30pm 23.3 24.2 21.5 90 1.2 E 19 32 10 17 1007.0 1002.0 11.6
23/06:00pm 24.0 26.7 22.8 93 0.8 E 13 20 7 11 1007.0 1002.0 11.4
23/05:35pm 23.8 25.8 22.3 91 1.0 ESE 15 24 8 13 1006.1 1001.1 11.4
23/05:30pm 24.0 26.5 22.4 91 1.1 E 13 24 7 13 1006.2 1001.3 11.4
23/05:16pm 24.3 27.5 23.1 93 0.8 ESE 11 15 6 8 1005.9 1000.9 11.2
23/05:00pm 24.4 26.9 23.2 93 0.8 SSE 15 22 8 12 1005.5 1000.5 10.0
23/04:30pm 24.4 27.6 23.1 92 0.9 SSW 11 15 6 8 1005.0 1000.0 10.0
23/04:27pm 24.4 27.6 23.0 92 1.0 SSW 11 13 6 7 1005.0 1000.0 10.0
23/04:06pm 25.8 29.3 22.2 80 2.5 S 7 13 4 7 1005.2 1000.2 9.0
23/04:00pm 26.0 28.2 21.9 78 2.8 SSE 13 19 7 10 1004.5 999.5 8.0
23/03:30pm 27.3 28.3 21.8 72 3.8 SSE 19 24 10 13 1003.9 998.9 8.0
23/03:00pm 26.8 29.7 21.7 73 3.5 SE 9 15 5 8 1004.7 999.8 8.0
23/02:30pm 26.1 27.4 21.6 76 3.1 SE 17 22 9 12 1004.6 999.7 8.0
23/02:00pm 25.0 27.5 22.4 85 1.8 SE 13 17 7 9 1005.4 1000.4 8.0
23/01:36pm 23.5 26.3 21.6 89 1.3 ENE 9 13 5 7 1006.0 1001.0 8.0
23/01:30pm 23.0 24.7 20.9 88 1.4 NNE 13 24 7 13 1006.1 1001.1 8.0
23/01:17pm 22.6 22.3 20.3 87 1.5 NNE 22 39 12 21 1007.1 1002.1 7.8
23/01:03pm 22.4 23.8 20.4 88 1.3 NE 13 20 7 11 1006.1 1001.1 6.4
23/01:00pm 22.1 23.0 20.1 88 1.3 NE 15 26 8 14 1006.2 1001.3 6.4
23/12:57pm 21.8 21.8 19.7 88 1.4 NNE 19 32 10 17 1006.5 1001.6 6.2
23/12:31pm 20.7 16.5 20.5 99 0.1 N 43 72 23 39 1007.2 1002.2 0.4
23/12:30pm 20.6 17.1 20.3 98 0.2 NNW 39 72 21 39 1007.3 1002.3 0.2
23/12:26pm 25.8 24.8 21.2 76 3.1 NNW 28 72 15 39 1007.1 1002.1 0.0
23/12:23pm 27.7 27.0 20.3 64 5.0 NNW 24 35 13 19 1006.3 1001.4 0.0
23/12:00pm 32.8 31.0 16.0 36 10.8 NNE 20 32 11 17 1006.1 1001.1 0.0
23/11:30am 32.9 31.2 16.3 37 10.7 N 20 30 11 16 1006.9 1001.9 0.0
23/11:00am 32.0 31.0 16.5 39 10.0 N 17 24 9 13 1007.5 1002.5 0.0
23/10:30am 31.5 29.8 16.2 39 9.8 N 20 28 11 15 1007.9 1003.0 0.0
23/10:00am 31.1 29.3 15.9 40 9.7 N 20 30 11 16 1008.1 1003.2 0.0
23/09:30am 30.7 29.5 16.2 41 9.3 N 17 26 9 14 1008.2 1003.3 0.0
23/09:00am 30.6 27.9 15.6 40 9.5 N 24 32 13 17 1008.8 1003.8 0.0
23/08:30am 30.5 27.8 14.7 38 9.9 N 22 32 12 17 1008.9 1003.9 0.0
23/08:00am 30.5 28.1 13.8 36 10.3 N 19 24 10 13 1008.3 1003.4 0.0
23/07:30am 30.4 29.9 13.7 36 10.3 NE 9 17 5 9 1008.7 1003.7 0.0
23/07:00am 29.6 28.1 13.0 36 10.1 E 13 15 7 8 1008.8 1003.8 0.0
23/06:30am 29.0 27.7 12.6 36 9.9 E 11 15 6 8 1008.6 1003.6 0.6
23/06:00am 27.6 27.9 14.5 44 8.1 SE 6 9 3 5 1008.1 1003.2 0.6
23/05:30am 28.2 27.8 13.0 39 9.2 NNE 7 11 4 6 1007.8 1002.9 0.6
23/05:00am 28.9 26.5 11.3 33 10.4 NNE 15 19 8 10 1007.8 1002.9 0.6
23/04:30am 28.1 25.3 11.3 35 9.9 ESE 17 20 9 11 1007.2 1002.2 0.6
23/04:00am 27.8 26.6 12.7 39 9.1 ENE 11 15 6 8 1007.4 1002.4 0.6
23/03:30am 28.0 25.0 12.5 38 9.3 SE 20 28 11 15 1007.1 1002.1 0.6
23/03:00am 27.2 24.9 14.2 44 8.0 ESE 19 24 10 13 1007.3 1002.3 0.6
23/02:30am 26.8 28.5 16.2 52 6.7 SSE 2 9 1 5 1008.0 1003.1 0.6
23/02:00am 26.5 26.9 16.4 53 6.4 NW 9 9 5 5 1007.9 1003.0 0.6
23/01:30am 27.0 28.4 16.3 52 6.8 WSW 4 7 2 4 1008.1 1003.2 0.6
23/01:00am 27.0 27.8 16.4 52 6.7 SSE 7 11 4 6 1008.8 1003.8 0.6
23/12:30am 27.4 28.0 15.8 49 7.3 W 7 9 4 5 1009.1 1004.1 0.6
23/12:00am 27.2 29.8 17.4 55 6.3 CALM 0 0 0 0 1009.3 1004.4 0.6
 
Date/Time
WST
Temp
°C
App
Temp
°C
Dew
Point
°C
Rel
Hum
%
Delta-T
°C
Wind Press
QNH
hPa
Press
MSL
hPa
Rain since
9am
mm
Dir  Spd
km/h
Gust
km/h
Spd
kts
Gust
kts
22/11:30pm 27.7 27.8 16.4 50 7.2 NW 11 15 6 8 1009.7 1004.8 0.4
22/11:00pm 27.1 27.5 17.3 55 6.3 ESE 11 24 6 13 1009.9 1005.0 0.4
22/10:30pm 27.5 28.1 16.7 51 6.9 WSW 9 15 5 8 1009.9 1005.0 0.4
22/10:00pm 26.9 29.4 17.2 55 6.2 CALM 0 0 0 0 1010.0 1005.1 0.4
22/09:30pm 27.3 27.6 16.1 50 7.1 W 9 13 5 7 1009.8 1004.9 0.4
22/09:00pm 27.9 28.0 15.5 46 7.8 WSW 9 17 5 9 1009.6 1004.7 0.4
22/08:30pm 28.4 28.0 15.3 45 8.2 WNW 11 15 6 8 1009.2 1004.2 0.4
22/08:00pm 28.2 29.1 16.0 47 7.7 WNW 6 9 3 5 1009.0 1004.0 0.4
22/07:30pm 28.3 28.3 16.2 47 7.7 NW 11 15 6 8 1009.1 1004.1 0.4
22/07:00pm 28.5 26.8 14.7 43 8.6 NNW 17 22 9 12 1008.7 1003.7 0.4
22/06:30pm 29.3 26.9 13.7 38 9.6 NNW 19 24 10 13 1008.1 1003.2 0.4
22/06:00pm 30.9 27.5 10.5 28 12.0 N 19 26 10 14 1007.6 1002.6 0.4
22/05:30pm 29.2 25.5 12.6 36 10.0 N 24 32 13 17 1008.0 1003.1 0.4
22/05:08pm 31.2 26.7 14.8 37 10.3 NNE 32 54 17 29 1008.8 1003.8 0.0
22/05:00pm 31.5 27.6 14.4 35 10.7 N 28 39 15 21 1008.3 1003.4 0.0
22/04:37pm 32.6 28.2 14.2 32 11.5 N 30 57 16 31 1007.5 1002.5 0.0
22/04:30pm 35.3 32.1 11.4 23 14.5 N 19 28 10 15 1007.4 1002.4 0.0
22/04:00pm 35.6 32.4 11.2 22 14.8 NNW 19 28 10 15 1007.3 1002.3 0.0
22/03:30pm 35.5 32.3 12.0 24 14.4 NNW 20 30 11 16 1007.6 1002.6 0.0
22/03:00pm 36.4 33.6 11.2 21 15.3 NNW 17 26 9 14 1008.1 1003.2 0.0
22/02:30pm 37.1 33.1 9.0 18 16.5 N 20 32 11 17 1008.6 1003.6 0.0
22/02:00pm 37.7 34.8 10.9 20 16.3 NNW 17 30 9 16 1009.0 1004.0 0.0
22/01:30pm 36.7 33.7 10.7 20 15.7 N 17 26 9 14 1009.8 1004.9 0.0
22/01:00pm 36.7 34.2 12.2 23 15.1 NNW 17 32 9 17 1010.2 1005.2 0.0
22/12:30pm 36.0 34.3 12.5 24 14.5 NNW 13 22 7 12 1010.5 1005.5 0.0
22/12:00pm 35.3 34.9 13.1 26 13.8 E 7 17 4 9 1010.8 1005.9 0.0
22/11:30am 35.4 33.5 13.0 26 13.9 NW 15 20 8 11 1011.2 1006.3 0.0
22/11:00am 35.4 33.7 13.5 26 13.7 N 15 26 8 14 1011.5 1006.6 0.0
22/10:30am 34.4 33.1 13.8 29 12.9 NW 13 26 7 14 1012.0 1007.0 0.0
22/10:00am 34.6 34.8 14.7 30 12.6 NNW 7 19 4 10 1012.3 1007.3 0.0
22/09:30am 33.1 31.6 14.3 32 11.8 N 15 20 8 11 1012.6 1007.7 0.0
22/09:00am 32.6 31.6 14.6 33 11.3 NNW 13 24 7 13 1012.8 1007.9 0.0
22/08:30am 32.0 30.9 14.4 34 11.0 NNW 13 19 7 10 1012.9 1008.0 0.0
22/08:00am 31.5 30.7 14.1 34 10.8 NW 11 19 6 10 1013.0 1008.1 0.0
22/07:30am 30.8 29.7 14.2 36 10.3 NW 13 17 7 9 1013.1 1008.2 0.0
22/07:00am 30.1 28.7 14.5 38 9.7 N 15 19 8 10 1012.9 1008.0 0.0
22/06:30am 27.8 29.5 15.3 46 7.8 CALM 0 0 0 0 1012.3 1007.3 0.0
22/06:00am 26.9 28.7 15.5 49 7.1 CALM 0 6 0 3 1011.8 1006.9 0.0
22/05:30am 26.9 27.0 15.5 49 7.1 ENE 9 9 5 5 1011.5 1006.6 0.0
22/05:00am 26.2 26.2 15.1 50 6.9 ESE 9 11 5 6 1010.9 1006.0 0.0
22/04:30am 25.9 26.3 15.3 52 6.6 SE 7 9 4 5 1010.5 1005.5 0.0
22/04:00am 26.4 27.3 15.1 49 7.0 NE 4 9 2 5 1010.2 1005.2 0.0
22/03:30am 27.2 26.7 15.0 47 7.6 NW 11 11 6 6 1009.8 1004.9 0.0
22/03:00am 27.5 27.0 15.0 46 7.8 NNW 11 13 6 7 1009.7 1004.8 0.0
22/02:30am 27.7 27.3 15.2 46 7.8 NW 11 13 6 7 1009.7 1004.8 0.0
22/02:00am 27.7 27.3 15.2 46 7.8 NW 11 13 6 7 1009.6 1004.7 0.0
22/01:30am 27.9 28.0 15.5 46 7.8 NW 9 11 5 6 1009.7 1004.8 0.0
22/01:00am 28.8 28.0 15.2 43 8.5 NNW 13 17 7 9 1009.8 1004.9 0.0
22/12:30am 29.4 27.7 14.8 41 9.1 NNW 17 22 9 12 1009.9 1005.0 0.0
22/12:00am 29.8 27.4 14.5 39 9.5 NNW 20 28 11 15 1010.2 1005.2 0.0
 
Date/Time
WST
Temp
°C
App
Temp
°C
Dew
Point
°C
Rel
Hum
%
Delta-T
°C
Wind Press
QNH
hPa
Press
MSL
hPa
Rain since
9am
mm
Dir  Spd
km/h
Gust
km/h
Spd
kts
Gust
kts
21/11:30pm 30.1 26.9 14.3 38 9.8 N 24 37 13 20 1010.6 1005.6 0.0
21/11:00pm 31.7 25.9 8.1 23 13.4 N 28 37 15 20 1010.5 1005.5 0.0
21/10:57pm 32.1 26.0 6.8 20 14.1 N 28 37 15 20 1010.5 1005.5 0.0
21/10:30pm 32.8 28.8 2.6 15 15.8 ENE 13 17 7 9 1010.5 1005.5 0.0
21/10:00pm 32.4 28.4 2.8 15 15.5 ENE 13 13 7 7 1010.7 1005.7 0.0
21/09:30pm 32.4 28.3 2.0 14 15.7 ENE 13 13 7 7 1010.7 1005.7 0.0
21/09:00pm 31.9 28.2 2.4 15 15.3 E 11 13 6 7 1010.6 1005.6 0.0
21/08:30pm 32.1 28.4 2.1 15 15.5 ESE 11 13 6 7 1010.4 1005.4 0.0
21/08:00pm 31.9 28.7 3.1 16 15.1 ESE 9 11 5 6 1010.0 1005.1 0.0
21/07:30pm 32.1 29.2 4.9 18 14.7 ESE 9 11 5 6 1010.0 1005.1 0.0
21/07:00pm 33.0 29.6 3.8 16 15.6 ESE 11 11 6 6 1009.8 1004.9 0.0
21/06:30pm 33.8 30.8 4.1 15 16.0 ESE 9 11 5 6 1009.9 1005.0 0.0
21/06:00pm 35.1 32.4 3.8 14 16.9 ESE 7 9 4 5 1009.9 1005.0 0.0
21/05:30pm 36.3 32.7 0.9 11 18.4 ESE 9 17 5 9 1009.8 1004.9 0.0
21/05:00pm 36.8 34.1 2.6 12 18.3 N 6 7 3 4 1009.6 1004.7 0.0
21/04:30pm 36.8 33.7 3.4 12 18.1 NE 9 17 5 9 1009.6 1004.7 0.0
21/04:00pm 37.4 34.9 1.3 10 19.0 ENE 4 13 2 7 1009.5 1004.6 0.0
21/03:30pm 37.5 34.6 2.4 11 18.8 WSW 7 11 4 6 1009.7 1004.8 0.0

Other formats

Comma delimited format used in spreadsheet applications
http://www.bom.gov.au/fwo/IDW60801/IDW60801.94461.axf

JavaScript Object Notation format (JSON) in row-major order
http://www.bom.gov.au/fwo/IDW60801/IDW60801.94461.json

Data quality

Most of these data are generated automatically and are frequently updated. Quality checks on data are not normally performed. It is possible for incorrect values to appear. Refer to information at About Latest Weather Observations and please check the disclaimer before using these data.